Time;durP1;ratioP1;P1;durP2;ratioP2;P2;SDS_P1;SDS_P2;PMS_P1;PMS_P2;Temp;Humidity;BMP_temperature;BMP_pressure;BME280_temperature;BME280_humidity;BME280_pressure;Samples;Min_cycle;Max_cycle;Signal;HPM_P1;HPM_P2
2022/11/29 00:02:13;;;;;;;38.20;19.92;;;;;;;;;;5136277;27;20382;-86
2022/11/29 00:04:39;;;;;;;65.68;31.45;;;;;;;;;;5117756;27;20383;-85
2022/11/29 00:07:06;;;;;;;78.60;37.15;;;;;;;;;;5136339;27;20423;-85
2022/11/29 00:09:32;;;;;;;56.22;28.73;;;;;;;;;;5117037;28;20386;-86
2022/11/29 00:12:13;;;;;;;10.43;9.25;;;;;;;;;;5138280;27;20711;-85
2022/11/29 00:14:39;;;;;;;8.83;7.93;;;;;;;;;;5136289;27;20920;-85
2022/11/29 00:17:05;;;;;;;8.07;7.25;;;;;;;;;;5117250;27;20417;-85
2022/11/29 00:19:32;;;;;;;7.17;6.57;;;;;;;;;;5126728;27;20807;-85
2022/11/29 00:21:58;;;;;;;7.63;6.82;;;;;;;;;;5117137;27;20397;-85
2022/11/29 00:24:24;;;;;;;7.20;6.60;;;;;;;;;;5135746;27;20462;-86
2022/11/29 00:26:51;;;;;;;7.07;6.47;;;;;;;;;;5117096;27;20749;-85
2022/11/29 00:29:17;;;;;;;7.38;6.70;;;;;;;;;;5135785;27;20767;-86
2022/11/29 00:31:44;;;;;;;7.38;6.70;;;;;;;;;;5135636;27;20371;-85
2022/11/29 00:34:10;;;;;;;6.43;5.93;;;;;;;;;;5135783;27;20855;-84
2022/11/29 00:36:37;;;;;;;6.37;5.87;;;;;;;;;;5116965;27;20424;-84
2022/11/29 00:39:04;;;;;;;5.97;5.47;;;;;;;;;;5117111;27;20498;-85
2022/11/29 00:41:30;;;;;;;6.18;5.68;;;;;;;;;;5117012;27;20397;-85
2022/11/29 00:43:56;;;;;;;6.47;5.93;;;;;;;;;;5135262;27;20913;-85
2022/11/29 00:46:23;;;;;;;6.70;6.10;;;;;;;;;;5116892;27;20863;-86
2022/11/29 00:48:52;;;;;;;6.30;5.70;;;;;;;;;;5116389;27;20410;-86
2022/11/29 00:51:18;;;;;;;6.00;5.50;;;;;;;;;;5134583;27;20401;-84
2022/11/29 00:53:44;;;;;;;5.95;5.45;;;;;;;;;;5131078;27;20380;-85
2022/11/29 00:56:10;;;;;;;5.43;5.03;;;;;;;;;;5102530;28;20389;-85
2022/11/29 00:58:36;;;;;;;5.70;5.18;;;;;;;;;;5116023;27;20747;-86
2022/11/29 01:01:03;;;;;;;6.40;5.80;;;;;;;;;;5114013;27;20410;-85
2022/11/29 01:03:29;;;;;;;6.47;5.63;;;;;;;;;;5133441;27;20386;-84
2022/11/29 01:06:06;;;;;;;6.50;5.90;;;;;;;;;;5112501;27;20387;-84
2022/11/29 01:08:33;;;;;;;7.07;6.40;;;;;;;;;;5133260;27;20370;-84
2022/11/29 01:11:25;;;;;;;6.40;5.80;;;;;;;;;;5133076;27;20866;-85
2022/11/29 01:13:53;;;;;;;5.93;5.53;;;;;;;;;;5128151;27;20383;-85
2022/11/29 01:16:19;;;;;;;5.85;5.28;;;;;;;;;;5114121;27;20430;-84
2022/11/29 01:18:46;;;;;;;6.03;5.43;;;;;;;;;;5115598;27;20406;-86
2022/11/29 01:21:13;;;;;;;7.05;6.47;;;;;;;;;;5112562;27;20391;-85
2022/11/29 01:23:40;;;;;;;5.60;5.10;;;;;;;;;;5114163;27;20475;-84
2022/11/29 01:26:10;;;;;;;6.53;5.93;;;;;;;;;;5134898;27;20544;-85
2022/11/29 01:28:36;;;;;;;6.05;5.55;;;;;;;;;;5116276;27;20375;-84
2022/11/29 01:31:09;;;;;;;5.95;5.45;;;;;;;;;;5135270;27;20378;-84
2022/11/29 01:33:35;;;;;;;5.72;5.22;;;;;;;;;;5116632;27;20386;-85
2022/11/29 01:36:02;;;;;;;5.75;5.35;;;;;;;;;;5135293;27;20443;-85
2022/11/29 01:38:28;;;;;;;5.45;5.05;;;;;;;;;;5117130;27;20434;-84
2022/11/29 01:41:01;;;;;;;6.10;5.50;;;;;;;;;;5135442;27;20875;-85
2022/11/29 01:43:28;;;;;;;5.90;5.40;;;;;;;;;;5135235;27;20405;-84
2022/11/29 01:45:54;;;;;;;5.80;5.30;;;;;;;;;;5134945;27;20427;-85
2022/11/29 01:48:23;;;;;;;6.13;5.53;;;;;;;;;;5134769;27;20457;-85
2022/11/29 01:50:49;;;;;;;5.80;5.20;;;;;;;;;;5095399;28;20389;-85
2022/11/29 01:53:16;;;;;;;5.47;4.72;;;;;;;;;;5131191;27;20740;-84
2022/11/29 01:55:53;;;;;;;5.53;4.70;;;;;;;;;;5134419;27;20432;-85
2022/11/29 01:58:20;;;;;;;6.00;5.50;;;;;;;;;;5133845;27;20413;-85
2022/11/29 02:00:46;;;;;;;6.95;6.32;;;;;;;;;;5133708;27;21289;-85
2022/11/29 02:03:14;;;;;;;8.82;7.72;;;;;;;;;;5115298;27;20375;-86
2022/11/29 02:05:42;;;;;;;7.53;6.80;;;;;;;;;;5133980;27;20386;-84
2022/11/29 02:08:09;;;;;;;8.43;7.72;;;;;;;;;;5134014;27;20389;-85
2022/11/29 02:10:38;;;;;;;9.50;8.70;;;;;;;;;;5133545;27;20881;-84
2022/11/29 02:13:24;;;;;;;9.80;9.00;;;;;;;;;;5134007;27;20371;-84
2022/11/29 02:16:19;;;;;;;9.67;8.67;;;;;;;;;;5133491;27;20378;-85
2022/11/29 02:18:54;;;;;;;9.80;8.90;;;;;;;;;;5105327;27;20410;-84
2022/11/29 02:21:41;;;;;;;9.60;8.80;;;;;;;;;;5133829;27;20716;-84
2022/11/29 02:24:16;;;;;;;9.77;9.07;;;;;;;;;;5133658;27;20374;-84
2022/11/29 02:26:58;;;;;;;10.57;9.68;;;;;;;;;;5133819;27;20463;-86
2022/11/29 02:29:24;;;;;;;9.90;9.02;;;;;;;;;;5134125;27;20846;-83
2022/11/29 02:31:53;;;;;;;10.83;9.83;;;;;;;;;;5133918;27;20431;-86
2022/11/29 02:34:25;;;;;;;10.95;10.05;;;;;;;;;;5130528;27;20383;-85
2022/11/29 02:37:04;;;;;;;10.50;9.60;;;;;;;;;;5125852;27;20466;-85
2022/11/29 02:39:39;;;;;;;10.35;9.48;;;;;;;;;;5118824;27;20430;-85
2022/11/29 02:42:12;;;;;;;12.53;11.50;;;;;;;;;;5131575;27;20371;-86
2022/11/29 02:45:02;;;;;;;11.60;10.50;;;;;;;;;;5133537;27;20433;-85
2022/11/29 02:47:53;;;;;;;10.80;9.90;;;;;;;;;;5133417;27;20460;-85
2022/11/29 02:50:22;;;;;;;11.88;10.77;;;;;;;;;;5133453;27;20374;-86
2022/11/29 02:53:07;;;;;;;11.50;10.50;;;;;;;;;;5132661;27;20395;-85
2022/11/29 02:55:38;;;;;;;13.02;11.82;;;;;;;;;;5133590;27;20371;-84
2022/11/29 02:58:13;;;;;;;12.10;10.90;;;;;;;;;;5129645;27;20398;-84
2022/11/29 03:00:43;;;;;;;11.80;10.80;;;;;;;;;;5131382;27;20404;-84
2022/11/29 03:03:13;;;;;;;12.65;11.45;;;;;;;;;;5133069;27;20371;-84
2022/11/29 03:05:43;;;;;;;11.80;10.70;;;;;;;;;;5133680;27;20873;-83
2022/11/29 03:08:28;;;;;;;11.57;10.50;;;;;;;;;;5133285;27;20370;-84
2022/11/29 03:11:17;;;;;;;11.63;10.55;;;;;;;;;;5135739;27;20371;-84
2022/11/29 03:13:46;;;;;;;11.50;10.60;;;;;;;;;;5133222;27;20443;-85
2022/11/29 03:16:35;;;;;;;11.57;10.50;;;;;;;;;;5133361;27;20722;-84
2022/11/29 03:19:10;;;;;;;11.73;10.73;;;;;;;;;;5110602;27;20406;-83
2022/11/29 03:21:36;;;;;;;12.45;11.30;;;;;;;;;;5132794;27;20872;-84
2022/11/29 03:24:05;;;;;;;12.53;11.43;;;;;;;;;;5132886;27;20378;-86
2022/11/29 03:26:35;;;;;;;13.23;12.02;;;;;;;;;;5133231;27;20878;-86
2022/11/29 03:29:16;;;;;;;12.55;11.38;;;;;;;;;;5127809;27;20442;-84
2022/11/29 03:31:54;;;;;;;13.80;12.43;;;;;;;;;;5132906;27;20465;-86
2022/11/29 03:34:24;;;;;;;13.55;12.25;;;;;;;;;;5133200;27;20371;-86
2022/11/29 03:37:10;;;;;;;14.15;12.70;;;;;;;;;;5133367;27;20386;-85
2022/11/29 03:39:41;;;;;;;13.65;12.35;;;;;;;;;;5132927;27;20398;-86
2022/11/29 03:42:12;;;;;;;12.45;11.32;;;;;;;;;;5132730;27;20379;-86
2022/11/29 03:45:01;;;;;;;12.30;11.20;;;;;;;;;;5133986;27;20867;-84
2022/11/29 03:47:30;;;;;;;15.50;13.75;;;;;;;;;;5123748;27;20389;-83
2022/11/29 03:50:05;;;;;;;15.23;13.70;;;;;;;;;;5136785;27;20370;-84
2022/11/29 03:52:38;;;;;;;13.95;12.60;;;;;;;;;;5136593;27;20386;-86
2022/11/29 03:55:13;;;;;;;15.35;13.75;;;;;;;;;;5117846;27;20733;-85
2022/11/29 03:57:58;;;;;;;15.43;13.18;;;;;;;;;;5136356;27;20731;-86
2022/11/29 04:00:24;;;;;;;17.60;14.40;;;;;;;;;;5136376;27;20516;-83
2022/11/29 04:02:56;;;;;;;15.98;14.20;;;;;;;;;;5136373;27;20382;-85
2022/11/29 04:05:32;;;;;;;15.07;13.52;;;;;;;;;;5136400;27;20386;-85
2022/11/29 04:08:01;;;;;;;13.65;12.45;;;;;;;;;;5136749;27;20390;-85
2022/11/29 04:10:34;;;;;;;13.27;11.98;;;;;;;;;;5136470;27;20379;-85
2022/11/29 04:13:15;;;;;;;12.65;11.55;;;;;;;;;;5136771;27;20386;-85
2022/11/29 04:15:41;;;;;;;13.20;12.00;;;;;;;;;;5136105;27;20704;-85
2022/11/29 04:18:26;;;;;;;12.98;11.88;;;;;;;;;;5128572;27;20419;-86
2022/11/29 04:21:07;;;;;;;13.73;12.43;;;;;;;;;;5122918;27;20471;-85
2022/11/29 04:23:51;;;;;;;14.02;12.82;;;;;;;;;;5136098;27;20382;-85
2022/11/29 04:26:27;;;;;;;14.35;13.05;;;;;;;;;;5138354;27;20465;-86
2022/11/29 04:29:06;;;;;;;13.98;12.63;;;;;;;;;;5136254;27;20390;-84
2022/11/29 04:31:32;;;;;;;13.82;12.52;;;;;;;;;;5135639;27;20382;-86
2022/11/29 04:33:58;;;;;;;12.98;11.75;;;;;;;;;;5126167;27;20392;-85
2022/11/29 04:36:32;;;;;;;13.20;12.00;;;;;;;;;;5121688;27;20477;-86
2022/11/29 04:39:10;;;;;;;12.90;11.70;;;;;;;;;;5127664;27;20410;-84
2022/11/29 04:41:36;;;;;;;13.32;12.13;;;;;;;;;;5121329;27;20370;-85
2022/11/29 04:44:05;;;;;;;12.75;11.70;;;;;;;;;;5134822;27;20385;-85
2022/11/29 04:46:35;;;;;;;11.90;10.90;;;;;;;;;;5135701;27;20862;-85
2022/11/29 04:49:01;;;;;;;12.35;11.30;;;;;;;;;;5135912;27;20383;-84
2022/11/29 04:51:30;;;;;;;12.27;11.18;;;;;;;;;;5135106;27;20378;-85
2022/11/29 04:54:14;;;;;;;12.60;11.43;;;;;;;;;;5135270;27;20407;-85
2022/11/29 04:56:49;;;;;;;11.88;10.80;;;;;;;;;;5134622;27;20394;-85
2022/11/29 04:59:18;;;;;;;13.13;11.93;;;;;;;;;;5131989;27;20416;-85
2022/11/29 05:02:10;;;;;;;13.50;12.27;;;;;;;;;;5128433;27;20377;-84
2022/11/29 05:04:46;;;;;;;11.93;10.83;;;;;;;;;;5089695;27;20378;-85
2022/11/29 05:07:12;;;;;;;13.37;12.20;;;;;;;;;;5132116;27;20854;-85
2022/11/29 05:09:44;;;;;;;12.98;11.77;;;;;;;;;;5137423;27;20377;-84
2022/11/29 05:12:32;;;;;;;12.68;11.48;;;;;;;;;;5141159;27;20463;-85
2022/11/29 05:15:18;;;;;;;12.25;11.18;;;;;;;;;;5120043;27;20403;-84
2022/11/29 05:17:56;;;;;;;14.25;12.80;;;;;;;;;;5133951;27;20375;-83
2022/11/29 05:20:28;;;;;;;12.77;11.57;;;;;;;;;;5134767;27;20375;-82
2022/11/29 05:23:09;;;;;;;12.82;11.70;;;;;;;;;;5128421;27;20453;-82
2022/11/29 05:25:39;;;;;;;14.18;12.90;;;;;;;;;;5125113;27;20368;-84
2022/11/29 05:28:08;;;;;;;12.32;11.25;;;;;;;;;;5125843;27;20378;-85
2022/11/29 05:30:52;;;;;;;12.43;11.35;;;;;;;;;;5134287;27;20435;-85
2022/11/29 05:33:36;;;;;;;12.10;11.07;;;;;;;;;;5132807;27;20373;-85
2022/11/29 05:36:05;;;;;;;12.05;11.05;;;;;;;;;;5131871;27;20363;-86
2022/11/29 05:38:31;;;;;;;12.15;11.13;;;;;;;;;;5131683;27;20414;-85
2022/11/29 05:41:06;;;;;;;13.07;11.97;;;;;;;;;;5132860;27;20393;-85
2022/11/29 05:43:51;;;;;;;12.70;11.60;;;;;;;;;;5133531;27;20379;-85
2022/11/29 05:46:36;;;;;;;12.25;11.05;;;;;;;;;;5133629;27;20383;-85
2022/11/29 05:49:17;;;;;;;11.50;10.45;;;;;;;;;;5134131;27;20491;-85
2022/11/29 05:51:57;;;;;;;11.15;10.25;;;;;;;;;;5134481;27;20427;-84
2022/11/29 05:54:24;;;;;;;10.88;9.95;;;;;;;;;;5119840;27;20381;-84
2022/11/29 05:56:59;;;;;;;10.52;9.63;;;;;;;;;;5115274;27;20510;-84
2022/11/29 05:59:27;;;;;;;10.63;9.73;;;;;;;;;;5126446;27;20789;-84
2022/11/29 06:02:11;;;;;;;10.43;9.43;;;;;;;;;;5134145;27;20374;-84
2022/11/29 06:04:52;;;;;;;10.80;9.80;;;;;;;;;;5134074;27;20988;-84
2022/11/29 06:07:27;;;;;;;11.07;10.18;;;;;;;;;;5133894;27;20370;-86
2022/11/29 06:09:57;;;;;;;10.20;9.40;;;;;;;;;;5133898;27;20435;-84
2022/11/29 06:12:25;;;;;;;9.93;9.13;;;;;;;;;;5134163;27;20382;-86
2022/11/29 06:14:51;;;;;;;10.77;9.88;;;;;;;;;;5133783;27;20387;-84
2022/11/29 06:17:29;;;;;;;10.37;9.57;;;;;;;;;;5128045;27;20397;-85
2022/11/29 06:19:58;;;;;;;12.13;11.10;;;;;;;;;;5112173;27;20444;-85
2022/11/29 06:22:32;;;;;;;13.52;12.25;;;;;;;;;;5114303;27;20371;-85
2022/11/29 06:25:22;;;;;;;12.55;11.65;;;;;;;;;;5123388;27;20388;-84
2022/11/29 06:28:07;;;;;;;12.32;11.32;;;;;;;;;;5113992;27;20910;-85
2022/11/29 06:30:52;;;;;;;11.38;10.38;;;;;;;;;;5114308;27;20465;-85
2022/11/29 06:33:23;;;;;;;11.32;10.43;;;;;;;;;;5116891;27;20385;-85
2022/11/29 06:35:52;;;;;;;11.30;10.43;;;;;;;;;;5114459;27;20444;-85
2022/11/29 06:38:29;;;;;;;11.50;10.60;;;;;;;;;;5114015;27;20404;-86
2022/11/29 06:40:55;;;;;;;11.45;10.57;;;;;;;;;;5117045;27;20385;-87
2022/11/29 06:43:22;;;;;;;11.15;10.25;;;;;;;;;;5120626;27;20843;-87
2022/11/29 06:45:52;;;;;;;10.65;9.65;;;;;;;;;;5133646;27;20375;-85
2022/11/29 06:48:23;;;;;;;10.80;9.87;;;;;;;;;;5133644;27;20383;-85
2022/11/29 06:50:49;;;;;;;10.13;9.27;;;;;;;;;;5110946;28;20845;-88
2022/11/29 06:53:21;;;;;;;10.43;9.52;;;;;;;;;;5121199;27;20445;-85
2022/11/29 06:55:55;;;;;;;10.35;9.48;;;;;;;;;;5135251;27;20872;-85
2022/11/29 06:58:31;;;;;;;11.95;10.85;;;;;;;;;;5132370;27;20416;-85
2022/11/29 07:01:00;;;;;;;10.65;9.75;;;;;;;;;;5112378;28;20373;-86
2022/11/29 07:03:26;;;;;;;10.48;9.48;;;;;;;;;;5127815;27;20406;-82
2022/11/29 07:05:52;;;;;;;9.60;8.80;;;;;;;;;;5125991;27;20812;-82
2022/11/29 07:08:20;;;;;;;10.40;9.55;;;;;;;;;;5128304;27;20376;-83
2022/11/29 07:10:48;;;;;;;9.85;9.00;;;;;;;;;;5130136;27;20374;-81
2022/11/29 07:13:15;;;;;;;9.35;8.60;;;;;;;;;;5133484;27;20431;-83
2022/11/29 07:15:43;;;;;;;10.15;9.25;;;;;;;;;;5133170;27;20379;-81
2022/11/29 07:18:28;;;;;;;10.38;9.40;;;;;;;;;;5139399;27;20825;-82
2022/11/29 07:21:06;;;;;;;9.93;9.13;;;;;;;;;;5119277;27;20388;-82
2022/11/29 07:23:37;;;;;;;9.57;8.77;;;;;;;;;;5132459;27;20382;-81
2022/11/29 07:26:03;;;;;;;10.40;9.40;;;;;;;;;;5137478;27;20426;-83
2022/11/29 07:28:29;;;;;;;9.35;8.55;;;;;;;;;;5137282;27;20382;-84
2022/11/29 07:31:08;;;;;;;10.27;9.27;;;;;;;;;;5137264;27;20391;-81
2022/11/29 07:33:53;;;;;;;10.23;9.23;;;;;;;;;;5137324;27;20404;-81
2022/11/29 07:36:25;;;;;;;10.48;9.48;;;;;;;;;;5136819;27;20410;-83
2022/11/29 07:38:51;;;;;;;9.75;8.95;;;;;;;;;;5136784;27;20947;-81
2022/11/29 07:41:37;;;;;;;10.17;9.17;;;;;;;;;;5113119;27;20458;-83
2022/11/29 07:44:09;;;;;;;9.63;8.73;;;;;;;;;;5128654;27;20414;-83
2022/11/29 07:46:35;;;;;;;9.33;8.53;;;;;;;;;;5136860;27;20405;-83
2022/11/29 07:49:01;;;;;;;9.75;8.95;;;;;;;;;;5112726;28;20505;-84
2022/11/29 07:51:27;;;;;;;9.32;8.45;;;;;;;;;;5133739;27;20843;-83
2022/11/29 07:53:53;;;;;;;8.93;8.23;;;;;;;;;;5118263;27;20393;-82
2022/11/29 07:56:19;;;;;;;9.55;8.75;;;;;;;;;;5136368;27;20394;-82
2022/11/29 07:58:45;;;;;;;10.18;9.18;;;;;;;;;;5136369;27;20494;-83
2022/11/29 08:01:11;;;;;;;9.27;8.48;;;;;;;;;;5136658;27;20374;-82
2022/11/29 08:03:37;;;;;;;9.80;9.00;;;;;;;;;;5136366;27;20411;-82
2022/11/29 08:06:03;;;;;;;9.68;8.80;;;;;;;;;;5117833;27;20403;-84
2022/11/29 08:08:29;;;;;;;9.18;8.48;;;;;;;;;;5135880;27;20759;-82
2022/11/29 08:10:55;;;;;;;9.48;8.73;;;;;;;;;;5136339;27;20490;-82
2022/11/29 08:13:21;;;;;;;9.77;8.88;;;;;;;;;;5136377;27;20386;-84
2022/11/29 08:15:48;;;;;;;9.03;8.33;;;;;;;;;;5136400;27;20407;-84
2022/11/29 08:18:14;;;;;;;8.65;8.05;;;;;;;;;;5127256;27;20506;-82
2022/11/29 08:20:40;;;;;;;8.40;7.60;;;;;;;;;;5136020;27;20436;-82
2022/11/29 08:23:07;;;;;;;7.93;7.22;;;;;;;;;;5136181;27;20375;-82
2022/11/29 08:25:33;;;;;;;7.70;7.10;;;;;;;;;;5117298;27;21262;-82
2022/11/29 08:28:01;;;;;;;7.40;6.70;;;;;;;;;;5137376;27;20378;-82
2022/11/29 08:30:27;;;;;;;7.15;6.50;;;;;;;;;;5135451;27;20371;-82
2022/11/29 08:32:53;;;;;;;7.53;6.93;;;;;;;;;;5135024;27;20385;-83
2022/11/29 08:35:20;;;;;;;7.22;6.60;;;;;;;;;;5135740;27;20371;-81
2022/11/29 08:37:46;;;;;;;7.63;6.82;;;;;;;;;;5127393;27;20466;-81
2022/11/29 08:40:12;;;;;;;8.25;7.45;;;;;;;;;;5120397;27;20861;-82
2022/11/29 08:42:38;;;;;;;8.23;7.50;;;;;;;;;;5120031;27;20377;-81
2022/11/29 08:45:05;;;;;;;9.98;9.07;;;;;;;;;;5121317;27;20392;-81
2022/11/29 08:47:37;;;;;;;13.50;12.20;;;;;;;;;;5128766;27;20377;-82
2022/11/29 08:50:05;;;;;;;23.35;20.55;;;;;;;;;;5136882;27;20410;-81
2022/11/29 08:55:20;;;;;;;15.52;14.32;;;;;;;;;;5138482;27;20785;-83
2022/11/29 08:57:47;;;;;;;13.43;12.38;;;;;;;;;;5137272;27;20383;-83
2022/11/29 09:00:13;;;;;;;11.30;10.38;;;;;;;;;;5135689;27;20383;-82
2022/11/29 09:02:39;;;;;;;12.40;11.15;;;;;;;;;;5120111;27;20388;-82
2022/11/29 09:05:06;;;;;;;15.23;12.52;;;;;;;;;;5115758;27;20394;-84
2022/11/29 09:07:32;;;;;;;11.00;9.23;;;;;;;;;;5114678;27;20374;-83
2022/11/29 09:10:03;;;;;;;11.13;9.60;;;;;;;;;;5115206;27;20393;-83
2022/11/29 09:12:29;;;;;;;9.65;8.85;;;;;;;;;;5115023;27;20412;-83
2022/11/29 09:14:55;;;;;;;8.30;7.60;;;;;;;;;;5099304;27;20762;-82
2022/11/29 09:17:21;;;;;;;8.00;7.28;;;;;;;;;;5121844;27;20864;-83
2022/11/29 09:19:47;;;;;;;8.50;7.75;;;;;;;;;;5114053;27;20412;-83
2022/11/29 09:22:13;;;;;;;8.45;7.65;;;;;;;;;;5131552;27;20379;-82
2022/11/29 09:24:39;;;;;;;8.57;7.77;;;;;;;;;;5105408;27;20404;-83
2022/11/29 09:27:05;;;;;;;8.57;7.78;;;;;;;;;;5131624;27;20413;-83
2022/11/29 09:29:31;;;;;;;13.65;12.25;;;;;;;;;;5116923;27;20469;-83
2022/11/29 09:31:57;;;;;;;11.98;10.93;;;;;;;;;;5116550;27;20380;-84
2022/11/29 09:34:23;;;;;;;11.32;10.27;;;;;;;;;;5097714;27;20398;-82
2022/11/29 09:36:49;;;;;;;12.15;11.05;;;;;;;;;;5134798;27;20371;-85
2022/11/29 09:39:15;;;;;;;11.48;10.27;;;;;;;;;;5124176;27;20408;-84
2022/11/29 09:42:00;;;;;;;12.40;10.98;;;;;;;;;;5116921;27;20382;-84
2022/11/29 09:44:44;;;;;;;11.07;10.07;;;;;;;;;;5129595;27;20424;-84
2022/11/29 09:47:16;;;;;;;11.18;10.13;;;;;;;;;;5118080;27;20380;-84
2022/11/29 09:50:01;;;;;;;11.57;10.38;;;;;;;;;;5118111;27;20391;-84
2022/11/29 09:52:29;;;;;;;10.30;9.43;;;;;;;;;;5125051;27;20734;-82
2022/11/29 09:55:09;;;;;;;11.00;9.93;;;;;;;;;;5101108;27;20433;-83
2022/11/29 09:57:35;;;;;;;11.40;10.40;;;;;;;;;;5131506;27;20871;-82
2022/11/29 10:00:03;;;;;;;10.73;9.73;;;;;;;;;;5131407;27;20901;-82
2022/11/29 10:02:47;;;;;;;10.88;9.95;;;;;;;;;;5134006;27;20383;-82
2022/11/29 10:05:18;;;;;;;9.65;8.85;;;;;;;;;;5133844;27;20390;-82
2022/11/29 10:07:55;;;;;;;10.00;9.00;;;;;;;;;;5133081;27;20386;-82
2022/11/29 10:10:27;;;;;;;10.75;9.73;;;;;;;;;;5122395;27;20769;-84
2022/11/29 10:12:54;;;;;;;9.80;8.80;;;;;;;;;;5124842;27;20377;-84
2022/11/29 10:15:26;;;;;;;10.10;9.02;;;;;;;;;;5119510;27;20415;-85
2022/11/29 10:17:58;;;;;;;11.23;10.05;;;;;;;;;;5122993;27;20431;-84
2022/11/29 10:20:26;;;;;;;10.80;9.70;;;;;;;;;;5118467;27;20431;-84
2022/11/29 10:22:55;;;;;;;10.60;9.57;;;;;;;;;;5118626;27;20389;-84
2022/11/29 10:25:26;;;;;;;9.20;8.30;;;;;;;;;;5123024;27;20388;-84
2022/11/29 10:27:53;;;;;;;8.48;7.65;;;;;;;;;;5131556;27;20476;-84
2022/11/29 10:30:19;;;;;;;7.88;7.07;;;;;;;;;;5132557;27;20365;-84
2022/11/29 10:32:46;;;;;;;7.45;6.15;;;;;;;;;;5133101;27;20367;-84
2022/11/29 10:35:16;;;;;;;7.05;6.00;;;;;;;;;;5132194;27;20386;-84
2022/11/29 10:37:43;;;;;;;6.95;5.88;;;;;;;;;;5133665;27;20374;-84
2022/11/29 10:40:14;;;;;;;6.43;5.35;;;;;;;;;;5133579;27;20870;-84
2022/11/29 10:42:52;;;;;;;8.10;5.93;;;;;;;;;;5133132;27;20874;-83
2022/11/29 10:45:21;;;;;;;5.47;4.97;;;;;;;;;;5133343;27;20856;-84
2022/11/29 10:47:47;;;;;;;9.48;7.70;;;;;;;;;;5133079;27;20383;-85
2022/11/29 10:50:16;;;;;;;8.15;7.35;;;;;;;;;;5133342;27;20387;-84
2022/11/29 10:52:42;;;;;;;9.75;8.25;;;;;;;;;;5133289;27;20378;-84
2022/11/29 10:55:11;;;;;;;12.10;8.88;;;;;;;;;;5133621;27;20379;-84
2022/11/29 10:57:57;;;;;;;8.90;7.80;;;;;;;;;;5132600;27;20783;-85
2022/11/29 11:00:23;;;;;;;7.63;5.80;;;;;;;;;;5119915;27;20518;-85
2022/11/29 11:02:49;;;;;;;7.72;6.22;;;;;;;;;;5133443;27;20844;-85
2022/11/29 11:05:25;;;;;;;6.20;5.43;;;;;;;;;;5132872;27;20367;-85
2022/11/29 11:07:58;;;;;;;8.17;6.00;;;;;;;;;;5128973;27;20471;-85
2022/11/29 11:10:28;;;;;;;6.90;5.57;;;;;;;;;;5132971;27;20382;-84
2022/11/29 11:13:01;;;;;;;7.45;5.40;;;;;;;;;;5135687;27;20720;-85
2022/11/29 11:15:29;;;;;;;5.68;4.57;;;;;;;;;;5133216;27;20450;-84
2022/11/29 11:18:06;;;;;;;5.78;4.47;;;;;;;;;;5127211;27;20372;-85
2022/11/29 11:20:33;;;;;;;4.88;3.90;;;;;;;;;;5118988;27;20443;-85
2022/11/29 11:23:03;;;;;;;6.05;4.30;;;;;;;;;;5123651;27;20378;-84
2022/11/29 11:25:34;;;;;;;6.63;4.82;;;;;;;;;;5132676;27;20379;-85
2022/11/29 11:28:14;;;;;;;7.03;4.35;;;;;;;;;;5123732;27;20383;-85
2022/11/29 11:30:40;;;;;;;5.50;4.20;;;;;;;;;;5131030;27;20473;-84
2022/11/29 11:33:06;;;;;;;8.02;4.45;;;;;;;;;;5132648;27;20386;-85
2022/11/29 11:35:32;;;;;;;6.90;4.60;;;;;;;;;;5133011;27;20761;-84
2022/11/29 11:37:58;;;;;;;6.80;5.07;;;;;;;;;;5132827;27;20779;-84
2022/11/29 11:40:27;;;;;;;7.13;5.10;;;;;;;;;;5133026;27;20512;-85
2022/11/29 11:42:53;;;;;;;7.18;5.07;;;;;;;;;;5132463;27;20402;-85
2022/11/29 11:45:22;;;;;;;7.85;4.22;;;;;;;;;;5133106;27;20716;-85
2022/11/29 11:47:50;;;;;;;9.07;4.57;;;;;;;;;;5132732;27;20458;-85
2022/11/29 11:50:24;;;;;;;5.93;4.20;;;;;;;;;;5132810;27;20839;-85
2022/11/29 11:52:55;;;;;;;6.57;4.10;;;;;;;;;;5132569;27;20393;-85
2022/11/29 11:55:22;;;;;;;5.55;4.50;;;;;;;;;;5132813;27;20827;-86
2022/11/29 11:58:06;;;;;;;7.85;4.10;;;;;;;;;;5132688;27;20389;-85
2022/11/29 12:00:40;;;;;;;8.10;4.20;;;;;;;;;;5132753;27;20390;-84
2022/11/29 12:03:06;;;;;;;5.75;3.85;;;;;;;;;;5127667;27;20428;-84
2022/11/29 12:05:32;;;;;;;6.68;4.00;;;;;;;;;;5132994;27;20375;-84
2022/11/29 12:08:01;;;;;;;7.35;3.55;;;;;;;;;;5117385;27;20378;-84
2022/11/29 12:10:29;;;;;;;6.90;3.22;;;;;;;;;;5136614;27;20377;-84
2022/11/29 12:12:55;;;;;;;5.82;3.28;;;;;;;;;;5136144;27;20389;-84
2022/11/29 12:15:27;;;;;;;6.35;3.05;;;;;;;;;;5137030;27;20394;-83
2022/11/29 12:18:05;;;;;;;6.75;3.30;;;;;;;;;;5137915;27;20461;-84
2022/11/29 12:20:50;;;;;;;6.28;2.83;;;;;;;;;;5135833;27;20383;-84
2022/11/29 12:23:35;;;;;;;6.28;2.75;;;;;;;;;;5135610;27;20374;-84
2022/11/29 12:26:10;;;;;;;6.38;3.60;;;;;;;;;;5136588;27;20375;-84
2022/11/29 12:28:38;;;;;;;6.13;3.50;;;;;;;;;;5135229;27;20740;-84
2022/11/29 12:31:16;;;;;;;6.97;3.60;;;;;;;;;;5138343;27;20377;-84
2022/11/29 12:33:51;;;;;;;6.90;2.65;;;;;;;;;;5136173;27;20458;-85
2022/11/29 12:36:21;;;;;;;6.05;2.55;;;;;;;;;;5135774;27;20375;-84
2022/11/29 12:39:02;;;;;;;5.95;2.63;;;;;;;;;;5136096;27;20493;-84
2022/11/29 12:41:28;;;;;;;5.00;2.58;;;;;;;;;;5136011;27;20431;-86
2022/11/29 12:43:54;;;;;;;5.88;2.80;;;;;;;;;;5136163;27;20370;-86
2022/11/29 12:46:23;;;;;;;4.55;2.50;;;;;;;;;;5135883;27;20378;-86
2022/11/29 12:49:08;;;;;;;5.00;2.55;;;;;;;;;;5135584;27;20375;-86
2022/11/29 12:51:38;;;;;;;6.32;3.08;;;;;;;;;;5135508;27;20696;-86
2022/11/29 12:54:19;;;;;;;5.40;2.88;;;;;;;;;;5135719;27;20723;-86
2022/11/29 12:56:48;;;;;;;5.80;3.08;;;;;;;;;;5113794;27;20383;-86
2022/11/29 12:59:30;;;;;;;5.22;2.65;;;;;;;;;;5135130;27;20883;-86
2022/11/29 13:01:59;;;;;;;5.70;3.30;;;;;;;;;;5135299;27;20769;-86
2022/11/29 13:04:25;;;;;;;5.18;3.67;;;;;;;;;;5135256;27;20382;-86
2022/11/29 13:07:02;;;;;;;6.05;3.90;;;;;;;;;;5135175;27;20736;-86
2022/11/29 13:09:54;;;;;;;7.38;3.17;;;;;;;;;;5135164;27;20402;-86
2022/11/29 13:12:33;;;;;;;9.27;3.88;;;;;;;;;;5131396;27;20419;-86
2022/11/29 13:15:02;;;;;;;7.75;3.80;;;;;;;;;;5132657;27;20792;-85
2022/11/29 13:17:46;;;;;;;6.72;3.72;;;;;;;;;;5130070;27;20467;-85
2022/11/29 13:20:18;;;;;;;7.03;3.92;;;;;;;;;;5130491;27;20436;-85
2022/11/29 13:22:47;;;;;;;7.45;4.05;;;;;;;;;;5134718;27;20371;-85
2022/11/29 13:25:23;;;;;;;10.45;5.07;;;;;;;;;;5134548;27;20383;-85
2022/11/29 13:28:09;;;;;;;5.80;3.50;;;;;;;;;;5134580;27;20371;-86
2022/11/29 13:30:36;;;;;;;6.45;3.90;;;;;;;;;;5115568;27;20892;-86
2022/11/29 13:33:07;;;;;;;7.55;4.47;;;;;;;;;;5134752;27;20393;-85
2022/11/29 13:35:50;;;;;;;9.70;4.60;;;;;;;;;;5134837;27;20378;-85
2022/11/29 13:38:25;;;;;;;7.78;4.00;;;;;;;;;;5134329;27;20410;-85
2022/11/29 13:40:59;;;;;;;7.70;4.00;;;;;;;;;;5134462;27;20474;-85
2022/11/29 13:43:29;;;;;;;8.18;3.97;;;;;;;;;;5134639;27;20378;-85
2022/11/29 13:46:01;;;;;;;5.97;4.35;;;;;;;;;;5134364;27;20374;-85
2022/11/29 13:48:35;;;;;;;7.93;4.30;;;;;;;;;;5116089;27;20495;-85
2022/11/29 13:51:20;;;;;;;7.68;4.22;;;;;;;;;;5134388;27;20861;-85
2022/11/29 13:53:46;;;;;;;8.30;4.50;;;;;;;;;;5134523;27;20383;-82
2022/11/29 13:56:24;;;;;;;6.88;4.40;;;;;;;;;;5134369;27;20379;-85
2022/11/29 13:58:54;;;;;;;7.57;4.78;;;;;;;;;;5134071;27;20449;-85
2022/11/29 14:01:21;;;;;;;8.50;5.28;;;;;;;;;;5133959;27;20397;-85
2022/11/29 14:04:04;;;;;;;7.83;5.40;;;;;;;;;;5134350;27;20374;-82
2022/11/29 14:06:35;;;;;;;10.95;6.78;;;;;;;;;;5133946;27;20375;-85
2022/11/29 14:09:13;;;;;;;15.25;7.75;;;;;;;;;;5134189;27;20421;-85
2022/11/29 14:11:42;;;;;;;9.65;6.95;;;;;;;;;;5134004;27;20840;-84
2022/11/29 14:14:10;;;;;;;9.70;6.68;;;;;;;;;;5133637;27;20421;-85
2022/11/29 14:16:42;;;;;;;10.80;6.60;;;;;;;;;;5133657;27;20367;-84
2022/11/29 14:19:08;;;;;;;8.73;6.53;;;;;;;;;;5124589;27;20747;-85
2022/11/29 14:21:53;;;;;;;10.52;5.90;;;;;;;;;;5133764;27;20409;-85
2022/11/29 14:24:42;;;;;;;8.82;6.10;;;;;;;;;;5136591;27;20424;-84
2022/11/29 14:27:08;;;;;;;8.98;5.82;;;;;;;;;;5120529;27;20490;-84
2022/11/29 14:29:49;;;;;;;8.05;5.32;;;;;;;;;;5133099;27;20378;-84
2022/11/29 14:32:30;;;;;;;9.35;6.32;;;;;;;;;;5133220;27;20382;-85
2022/11/29 14:35:08;;;;;;;11.02;7.15;;;;;;;;;;5133367;27;20464;-85
2022/11/29 14:37:54;;;;;;;10.93;7.28;;;;;;;;;;5133378;27;20379;-85
2022/11/29 14:40:30;;;;;;;10.45;7.43;;;;;;;;;;5133712;27;20406;-84
2022/11/29 14:42:57;;;;;;;10.05;7.25;;;;;;;;;;5133569;27;20379;-84
2022/11/29 14:45:27;;;;;;;9.57;7.15;;;;;;;;;;5133726;27;20379;-85
2022/11/29 14:47:54;;;;;;;11.13;7.22;;;;;;;;;;5133687;27;20433;-84
2022/11/29 14:50:39;;;;;;;12.85;8.18;;;;;;;;;;5133190;27;20457;-84
2022/11/29 14:53:06;;;;;;;10.80;8.20;;;;;;;;;;5133286;27;20382;-85
2022/11/29 14:55:34;;;;;;;8.88;7.47;;;;;;;;;;5133339;27;20439;-84
2022/11/29 14:58:00;;;;;;;13.53;8.50;;;;;;;;;;5133289;27;20381;-84
2022/11/29 15:00:28;;;;;;;11.57;7.57;;;;;;;;;;5129703;27;20386;-85
2022/11/29 15:03:23;;;;;;;15.30;8.27;;;;;;;;;;5133270;27;20379;-85
2022/11/29 15:05:57;;;;;;;13.35;8.20;;;;;;;;;;5111144;27;20439;-85